sensor_id;sensor_type;location;lat;lon;timestamp;P1;durP1;ratioP1;P2;durP2;ratioP2
55212;SDS011;41083;52.932;6.674;2022-12-18T00:01:51;23.85;;;9.73;;
55212;SDS011;41083;52.932;6.674;2022-12-18T00:04:21;16.58;;;6.68;;
55212;SDS011;41083;52.932;6.674;2022-12-18T00:06:49;24.73;;;9.02;;
55212;SDS011;41083;52.932;6.674;2022-12-18T00:09:14;21.63;;;8.50;;
55212;SDS011;41083;52.932;6.674;2022-12-18T00:11:40;16.60;;;9.00;;
55212;SDS011;41083;52.932;6.674;2022-12-18T00:14:06;18.63;;;7.15;;
55212;SDS011;41083;52.932;6.674;2022-12-18T00:16:32;16.40;;;7.13;;
55212;SDS011;41083;52.932;6.674;2022-12-18T00:19:00;13.77;;;7.63;;
55212;SDS011;41083;52.932;6.674;2022-12-18T00:21:27;23.65;;;9.90;;
55212;SDS011;41083;52.932;6.674;2022-12-18T00:23:54;17.13;;;7.35;;
55212;SDS011;41083;52.932;6.674;2022-12-18T00:26:20;14.48;;;9.80;;
55212;SDS011;41083;52.932;6.674;2022-12-18T00:28:48;21.08;;;7.68;;
55212;SDS011;41083;52.932;6.674;2022-12-18T00:31:15;18.05;;;8.20;;
55212;SDS011;41083;52.932;6.674;2022-12-18T00:33:43;23.50;;;9.13;;
55212;SDS011;41083;52.932;6.674;2022-12-18T00:36:18;25.13;;;11.75;;
55212;SDS011;41083;52.932;6.674;2022-12-18T00:38:45;20.80;;;7.07;;
55212;SDS011;41083;52.932;6.674;2022-12-18T00:41:12;23.15;;;10.27;;
55212;SDS011;41083;52.932;6.674;2022-12-18T00:43:59;17.55;;;8.55;;
55212;SDS011;41083;52.932;6.674;2022-12-18T00:46:25;23.40;;;10.15;;
55212;SDS011;41083;52.932;6.674;2022-12-18T00:48:51;21.70;;;10.02;;
55212;SDS011;41083;52.932;6.674;2022-12-18T00:51:16;22.10;;;10.98;;
55212;SDS011;41083;52.932;6.674;2022-12-18T00:53:42;15.30;;;8.82;;
55212;SDS011;41083;52.932;6.674;2022-12-18T00:56:07;28.05;;;11.50;;
55212;SDS011;41083;52.932;6.674;2022-12-18T00:58:33;22.42;;;10.77;;
55212;SDS011;41083;52.932;6.674;2022-12-18T01:01:00;14.00;;;6.75;;
55212;SDS011;41083;52.932;6.674;2022-12-18T01:03:25;18.63;;;10.75;;
55212;SDS011;41083;52.932;6.674;2022-12-18T01:05:51;25.85;;;10.90;;
55212;SDS011;41083;52.932;6.674;2022-12-18T01:08:17;15.30;;;8.10;;
55212;SDS011;41083;52.932;6.674;2022-12-18T01:10:42;16.65;;;7.40;;
55212;SDS011;41083;52.932;6.674;2022-12-18T01:13:08;22.75;;;9.88;;
55212;SDS011;41083;52.932;6.674;2022-12-18T01:15:33;29.92;;;10.65;;
55212;SDS011;41083;52.932;6.674;2022-12-18T01:17:59;18.55;;;8.80;;
55212;SDS011;41083;52.932;6.674;2022-12-18T01:20:25;18.20;;;8.10;;
55212;SDS011;41083;52.932;6.674;2022-12-18T01:22:50;19.85;;;8.32;;
55212;SDS011;41083;52.932;6.674;2022-12-18T01:25:16;20.33;;;11.18;;
55212;SDS011;41083;52.932;6.674;2022-12-18T01:27:41;22.80;;;10.32;;
55212;SDS011;41083;52.932;6.674;2022-12-18T01:30:08;24.02;;;10.15;;
55212;SDS011;41083;52.932;6.674;2022-12-18T01:32:34;15.30;;;8.00;;
55212;SDS011;41083;52.932;6.674;2022-12-18T01:34:59;19.38;;;8.57;;
55212;SDS011;41083;52.932;6.674;2022-12-18T01:37:25;24.25;;;9.77;;
55212;SDS011;41083;52.932;6.674;2022-12-18T01:39:52;19.83;;;10.20;;
55212;SDS011;41083;52.932;6.674;2022-12-18T01:42:19;19.63;;;8.02;;
55212;SDS011;41083;52.932;6.674;2022-12-18T01:44:55;20.30;;;9.18;;
55212;SDS011;41083;52.932;6.674;2022-12-18T01:47:49;15.35;;;7.55;;
55212;SDS011;41083;52.932;6.674;2022-12-18T01:50:39;23.45;;;10.13;;
55212;SDS011;41083;52.932;6.674;2022-12-18T01:53:08;26.13;;;7.88;;
55212;SDS011;41083;52.932;6.674;2022-12-18T01:55:42;23.27;;;11.40;;
55212;SDS011;41083;52.932;6.674;2022-12-18T01:58:13;33.40;;;12.48;;
55212;SDS011;41083;52.932;6.674;2022-12-18T02:00:39;21.77;;;9.15;;
55212;SDS011;41083;52.932;6.674;2022-12-18T02:03:04;22.33;;;7.20;;
55212;SDS011;41083;52.932;6.674;2022-12-18T02:05:34;21.75;;;9.15;;
55212;SDS011;41083;52.932;6.674;2022-12-18T02:08:17;29.83;;;9.32;;
55212;SDS011;41083;52.932;6.674;2022-12-18T02:10:48;21.90;;;11.68;;
55212;SDS011;41083;52.932;6.674;2022-12-18T02:13:32;21.00;;;9.50;;
55212;SDS011;41083;52.932;6.674;2022-12-18T02:18:49;18.85;;;10.98;;
55212;SDS011;41083;52.932;6.674;2022-12-18T02:21:32;14.93;;;8.40;;
55212;SDS011;41083;52.932;6.674;2022-12-18T02:24:18;19.48;;;8.68;;
55212;SDS011;41083;52.932;6.674;2022-12-18T02:26:59;25.20;;;12.63;;
55212;SDS011;41083;52.932;6.674;2022-12-18T02:29:31;26.05;;;10.35;;
55212;SDS011;41083;52.932;6.674;2022-12-18T02:32:03;29.25;;;9.40;;
55212;SDS011;41083;52.932;6.674;2022-12-18T02:34:39;16.35;;;8.95;;
55212;SDS011;41083;52.932;6.674;2022-12-18T02:37:07;17.90;;;9.13;;
55212;SDS011;41083;52.932;6.674;2022-12-18T02:39:37;14.68;;;7.32;;
55212;SDS011;41083;52.932;6.674;2022-12-18T02:42:05;18.83;;;8.20;;
55212;SDS011;41083;52.932;6.674;2022-12-18T02:44:34;24.77;;;6.30;;
55212;SDS011;41083;52.932;6.674;2022-12-18T02:47:08;22.33;;;8.80;;
55212;SDS011;41083;52.932;6.674;2022-12-18T02:53:00;15.00;;;7.50;;
55212;SDS011;41083;52.932;6.674;2022-12-18T02:58:15;15.40;;;8.45;;
55212;SDS011;41083;52.932;6.674;2022-12-18T03:00:58;23.40;;;8.77;;
55212;SDS011;41083;52.932;6.674;2022-12-18T03:03:35;22.35;;;7.60;;
55212;SDS011;41083;52.932;6.674;2022-12-18T03:06:16;22.52;;;10.32;;
55212;SDS011;41083;52.932;6.674;2022-12-18T03:08:49;13.93;;;7.38;;
55212;SDS011;41083;52.932;6.674;2022-12-18T03:11:21;20.67;;;9.07;;
55212;SDS011;41083;52.932;6.674;2022-12-18T03:14:07;22.52;;;8.90;;
55212;SDS011;41083;52.932;6.674;2022-12-18T03:16:33;17.95;;;8.23;;
55212;SDS011;41083;52.932;6.674;2022-12-18T03:19:02;22.40;;;7.93;;
55212;SDS011;41083;52.932;6.674;2022-12-18T03:21:50;13.45;;;7.95;;
55212;SDS011;41083;52.932;6.674;2022-12-18T03:24:19;20.45;;;11.43;;
55212;SDS011;41083;52.932;6.674;2022-12-18T03:26:47;21.27;;;8.05;;
55212;SDS011;41083;52.932;6.674;2022-12-18T03:29:20;12.98;;;7.70;;
55212;SDS011;41083;52.932;6.674;2022-12-18T03:31:53;21.33;;;10.00;;
55212;SDS011;41083;52.932;6.674;2022-12-18T03:34:26;13.23;;;7.93;;
55212;SDS011;41083;52.932;6.674;2022-12-18T03:36:58;18.17;;;8.00;;
55212;SDS011;41083;52.932;6.674;2022-12-18T03:39:28;23.90;;;8.07;;
55212;SDS011;41083;52.932;6.674;2022-12-18T03:44:45;10.68;;;6.78;;
55212;SDS011;41083;52.932;6.674;2022-12-18T03:47:27;18.20;;;7.85;;
55212;SDS011;41083;52.932;6.674;2022-12-18T03:52:38;8.13;;;6.78;;
55212;SDS011;41083;52.932;6.674;2022-12-18T03:55:17;26.95;;;8.73;;
55212;SDS011;41083;52.932;6.674;2022-12-18T03:57:44;25.95;;;9.27;;
55212;SDS011;41083;52.932;6.674;2022-12-18T04:00:12;10.55;;;5.60;;
55212;SDS011;41083;52.932;6.674;2022-12-18T04:02:42;13.98;;;6.38;;
55212;SDS011;41083;52.932;6.674;2022-12-18T04:05:20;16.70;;;7.22;;
55212;SDS011;41083;52.932;6.674;2022-12-18T04:07:47;17.60;;;7.68;;
55212;SDS011;41083;52.932;6.674;2022-12-18T04:10:14;16.73;;;6.45;;
55212;SDS011;41083;52.932;6.674;2022-12-18T04:12:41;13.32;;;8.15;;
55212;SDS011;41083;52.932;6.674;2022-12-18T04:15:07;10.27;;;6.32;;
55212;SDS011;41083;52.932;6.674;2022-12-18T04:17:36;9.77;;;4.97;;
55212;SDS011;41083;52.932;6.674;2022-12-18T04:20:02;13.68;;;6.20;;
55212;SDS011;41083;52.932;6.674;2022-12-18T04:22:28;16.85;;;8.57;;
55212;SDS011;41083;52.932;6.674;2022-12-18T04:24:54;19.92;;;9.05;;
55212;SDS011;41083;52.932;6.674;2022-12-18T04:27:19;11.20;;;6.05;;
55212;SDS011;41083;52.932;6.674;2022-12-18T04:29:45;10.98;;;6.75;;
55212;SDS011;41083;52.932;6.674;2022-12-18T04:32:10;12.07;;;6.15;;
55212;SDS011;41083;52.932;6.674;2022-12-18T04:34:36;17.33;;;6.15;;
55212;SDS011;41083;52.932;6.674;2022-12-18T04:37:02;18.60;;;5.70;;
55212;SDS011;41083;52.932;6.674;2022-12-18T04:39:27;12.40;;;6.22;;
55212;SDS011;41083;52.932;6.674;2022-12-18T04:41:53;16.08;;;6.10;;
55212;SDS011;41083;52.932;6.674;2022-12-18T04:44:18;16.45;;;8.25;;
55212;SDS011;41083;52.932;6.674;2022-12-18T04:46:44;25.73;;;7.28;;
55212;SDS011;41083;52.932;6.674;2022-12-18T04:49:10;7.20;;;5.18;;
55212;SDS011;41083;52.932;6.674;2022-12-18T04:51:36;7.43;;;4.88;;
55212;SDS011;41083;52.932;6.674;2022-12-18T04:54:02;23.88;;;7.57;;
55212;SDS011;41083;52.932;6.674;2022-12-18T04:56:27;10.98;;;5.07;;
55212;SDS011;41083;52.932;6.674;2022-12-18T04:58:53;10.15;;;3.72;;
55212;SDS011;41083;52.932;6.674;2022-12-18T05:01:19;12.88;;;6.35;;
55212;SDS011;41083;52.932;6.674;2022-12-18T05:03:44;13.90;;;6.65;;
55212;SDS011;41083;52.932;6.674;2022-12-18T05:06:10;11.32;;;5.47;;
55212;SDS011;41083;52.932;6.674;2022-12-18T05:08:36;9.93;;;5.85;;
55212;SDS011;41083;52.932;6.674;2022-12-18T05:11:03;12.30;;;4.90;;
55212;SDS011;41083;52.932;6.674;2022-12-18T05:13:31;16.95;;;6.03;;
55212;SDS011;41083;52.932;6.674;2022-12-18T05:15:57;12.45;;;5.68;;
55212;SDS011;41083;52.932;6.674;2022-12-18T05:18:23;11.93;;;5.18;;
55212;SDS011;41083;52.932;6.674;2022-12-18T05:20:49;9.88;;;5.60;;
55212;SDS011;41083;52.932;6.674;2022-12-18T05:23:16;11.20;;;6.30;;
55212;SDS011;41083;52.932;6.674;2022-12-18T05:25:42;12.10;;;5.78;;
55212;SDS011;41083;52.932;6.674;2022-12-18T05:28:13;14.18;;;6.57;;
55212;SDS011;41083;52.932;6.674;2022-12-18T05:30:39;12.63;;;7.70;;
55212;SDS011;41083;52.932;6.674;2022-12-18T05:33:12;14.40;;;5.80;;
55212;SDS011;41083;52.932;6.674;2022-12-18T05:35:37;16.42;;;5.40;;
55212;SDS011;41083;52.932;6.674;2022-12-18T05:38:03;15.75;;;4.68;;
55212;SDS011;41083;52.932;6.674;2022-12-18T05:40:28;17.27;;;7.53;;
55212;SDS011;41083;52.932;6.674;2022-12-18T05:42:54;15.27;;;5.10;;
55212;SDS011;41083;52.932;6.674;2022-12-18T05:45:19;11.57;;;5.45;;
55212;SDS011;41083;52.932;6.674;2022-12-18T05:47:45;13.65;;;5.13;;
55212;SDS011;41083;52.932;6.674;2022-12-18T05:50:11;13.05;;;6.68;;
55212;SDS011;41083;52.932;6.674;2022-12-18T05:52:36;12.30;;;5.32;;
55212;SDS011;41083;52.932;6.674;2022-12-18T05:55:02;9.63;;;6.20;;
55212;SDS011;41083;52.932;6.674;2022-12-18T05:57:28;16.30;;;5.78;;
55212;SDS011;41083;52.932;6.674;2022-12-18T05:59:53;11.20;;;6.95;;
55212;SDS011;41083;52.932;6.674;2022-12-18T06:02:19;8.52;;;3.95;;
55212;SDS011;41083;52.932;6.674;2022-12-18T06:04:45;8.45;;;4.20;;
55212;SDS011;41083;52.932;6.674;2022-12-18T06:07:12;20.20;;;5.60;;
55212;SDS011;41083;52.932;6.674;2022-12-18T06:09:37;14.60;;;7.10;;
55212;SDS011;41083;52.932;6.674;2022-12-18T06:12:03;12.50;;;6.93;;
55212;SDS011;41083;52.932;6.674;2022-12-18T06:14:29;13.52;;;6.68;;
55212;SDS011;41083;52.932;6.674;2022-12-18T06:16:54;12.30;;;5.35;;
55212;SDS011;41083;52.932;6.674;2022-12-18T06:19:20;10.50;;;5.13;;
55212;SDS011;41083;52.932;6.674;2022-12-18T06:21:45;13.88;;;5.65;;
55212;SDS011;41083;52.932;6.674;2022-12-18T06:24:11;18.70;;;6.20;;
55212;SDS011;41083;52.932;6.674;2022-12-18T06:26:40;13.10;;;4.43;;
55212;SDS011;41083;52.932;6.674;2022-12-18T06:29:06;8.00;;;4.47;;
55212;SDS011;41083;52.932;6.674;2022-12-18T06:31:32;12.10;;;3.95;;
55212;SDS011;41083;52.932;6.674;2022-12-18T06:33:58;16.83;;;6.20;;
55212;SDS011;41083;52.932;6.674;2022-12-18T06:36:23;16.83;;;5.03;;
55212;SDS011;41083;52.932;6.674;2022-12-18T06:38:49;8.95;;;5.63;;
55212;SDS011;41083;52.932;6.674;2022-12-18T06:41:19;11.52;;;5.00;;
55212;SDS011;41083;52.932;6.674;2022-12-18T06:43:46;8.15;;;6.10;;
55212;SDS011;41083;52.932;6.674;2022-12-18T06:46:11;16.50;;;5.35;;
55212;SDS011;41083;52.932;6.674;2022-12-18T06:48:37;13.52;;;5.65;;
55212;SDS011;41083;52.932;6.674;2022-12-18T06:51:03;12.00;;;5.25;;
55212;SDS011;41083;52.932;6.674;2022-12-18T06:53:29;13.70;;;5.50;;
55212;SDS011;41083;52.932;6.674;2022-12-18T06:56:03;12.70;;;5.65;;
55212;SDS011;41083;52.932;6.674;2022-12-18T06:58:31;16.73;;;4.60;;
55212;SDS011;41083;52.932;6.674;2022-12-18T07:01:00;8.48;;;5.35;;
55212;SDS011;41083;52.932;6.674;2022-12-18T07:03:26;9.52;;;5.43;;
55212;SDS011;41083;52.932;6.674;2022-12-18T07:05:52;12.57;;;6.13;;
55212;SDS011;41083;52.932;6.674;2022-12-18T07:08:18;7.82;;;4.85;;
55212;SDS011;41083;52.932;6.674;2022-12-18T07:10:44;9.55;;;3.53;;
55212;SDS011;41083;52.932;6.674;2022-12-18T07:13:09;6.82;;;4.35;;
55212;SDS011;41083;52.932;6.674;2022-12-18T07:15:35;9.20;;;5.13;;
55212;SDS011;41083;52.932;6.674;2022-12-18T07:18:01;9.95;;;5.30;;
55212;SDS011;41083;52.932;6.674;2022-12-18T07:20:26;5.25;;;3.55;;
55212;SDS011;41083;52.932;6.674;2022-12-18T07:22:52;10.80;;;3.75;;
55212;SDS011;41083;52.932;6.674;2022-12-18T07:25:18;10.57;;;4.15;;
55212;SDS011;41083;52.932;6.674;2022-12-18T07:27:43;13.60;;;6.03;;
55212;SDS011;41083;52.932;6.674;2022-12-18T07:30:09;11.63;;;5.50;;
55212;SDS011;41083;52.932;6.674;2022-12-18T07:32:35;9.93;;;4.30;;
55212;SDS011;41083;52.932;6.674;2022-12-18T07:35:00;10.00;;;3.88;;
55212;SDS011;41083;52.932;6.674;2022-12-18T07:37:26;8.30;;;3.83;;
55212;SDS011;41083;52.932;6.674;2022-12-18T07:39:52;13.48;;;5.63;;
55212;SDS011;41083;52.932;6.674;2022-12-18T07:42:17;7.63;;;4.82;;
55212;SDS011;41083;52.932;6.674;2022-12-18T07:45:01;13.82;;;4.80;;
55212;SDS011;41083;52.932;6.674;2022-12-18T07:47:27;11.13;;;4.20;;
55212;SDS011;41083;52.932;6.674;2022-12-18T07:49:53;9.32;;;5.13;;
55212;SDS011;41083;52.932;6.674;2022-12-18T07:52:19;12.65;;;5.15;;
55212;SDS011;41083;52.932;6.674;2022-12-18T07:54:44;7.88;;;5.15;;
55212;SDS011;41083;52.932;6.674;2022-12-18T07:57:10;12.52;;;4.93;;
55212;SDS011;41083;52.932;6.674;2022-12-18T07:59:36;9.57;;;5.32;;
55212;SDS011;41083;52.932;6.674;2022-12-18T08:02:02;11.90;;;6.28;;
55212;SDS011;41083;52.932;6.674;2022-12-18T08:04:27;11.68;;;4.85;;
55212;SDS011;41083;52.932;6.674;2022-12-18T08:06:53;8.25;;;3.05;;
55212;SDS011;41083;52.932;6.674;2022-12-18T08:09:19;5.10;;;3.38;;
55212;SDS011;41083;52.932;6.674;2022-12-18T08:11:45;6.97;;;4.28;;
55212;SDS011;41083;52.932;6.674;2022-12-18T08:14:10;6.47;;;4.60;;
55212;SDS011;41083;52.932;6.674;2022-12-18T08:16:36;5.07;;;3.85;;
55212;SDS011;41083;52.932;6.674;2022-12-18T08:19:02;12.95;;;5.75;;
55212;SDS011;41083;52.932;6.674;2022-12-18T08:21:29;7.95;;;4.47;;
55212;SDS011;41083;52.932;6.674;2022-12-18T08:23:56;10.13;;;4.90;;
55212;SDS011;41083;52.932;6.674;2022-12-18T08:26:24;4.30;;;3.38;;
55212;SDS011;41083;52.932;6.674;2022-12-18T08:28:50;11.90;;;6.57;;
55212;SDS011;41083;52.932;6.674;2022-12-18T08:31:18;5.82;;;4.32;;
55212;SDS011;41083;52.932;6.674;2022-12-18T08:33:43;7.03;;;4.97;;
55212;SDS011;41083;52.932;6.674;2022-12-18T08:36:09;5.40;;;4.90;;
55212;SDS011;41083;52.932;6.674;2022-12-18T08:38:35;5.72;;;3.75;;
55212;SDS011;41083;52.932;6.674;2022-12-18T08:41:02;14.63;;;3.90;;
55212;SDS011;41083;52.932;6.674;2022-12-18T08:43:29;6.97;;;3.65;;
55212;SDS011;41083;52.932;6.674;2022-12-18T08:46:13;6.72;;;4.07;;
55212;SDS011;41083;52.932;6.674;2022-12-18T08:48:39;11.82;;;3.97;;
55212;SDS011;41083;52.932;6.674;2022-12-18T08:51:05;11.48;;;4.00;;
55212;SDS011;41083;52.932;6.674;2022-12-18T08:53:31;6.65;;;3.42;;
55212;SDS011;41083;52.932;6.674;2022-12-18T08:55:56;6.10;;;3.55;;
55212;SDS011;41083;52.932;6.674;2022-12-18T08:58:22;4.50;;;2.22;;
55212;SDS011;41083;52.932;6.674;2022-12-18T09:00:48;7.82;;;3.20;;
55212;SDS011;41083;52.932;6.674;2022-12-18T09:03:15;10.75;;;4.25;;
55212;SDS011;41083;52.932;6.674;2022-12-18T09:05:41;4.07;;;3.65;;
55212;SDS011;41083;52.932;6.674;2022-12-18T09:08:07;8.38;;;3.42;;
55212;SDS011;41083;52.932;6.674;2022-12-18T09:10:33;4.82;;;4.05;;
55212;SDS011;41083;52.932;6.674;2022-12-18T09:12:59;10.05;;;5.65;;
55212;SDS011;41083;52.932;6.674;2022-12-18T09:15:24;7.78;;;3.60;;
55212;SDS011;41083;52.932;6.674;2022-12-18T09:17:50;4.50;;;2.47;;
55212;SDS011;41083;52.932;6.674;2022-12-18T09:20:17;3.15;;;2.85;;
55212;SDS011;41083;52.932;6.674;2022-12-18T09:22:43;4.13;;;3.00;;
55212;SDS011;41083;52.932;6.674;2022-12-18T09:25:09;4.65;;;3.80;;
55212;SDS011;41083;52.932;6.674;2022-12-18T09:27:35;7.55;;;3.35;;
55212;SDS011;41083;52.932;6.674;2022-12-18T09:30:00;7.20;;;4.35;;
55212;SDS011;41083;52.932;6.674;2022-12-18T09:32:27;3.72;;;2.28;;
55212;SDS011;41083;52.932;6.674;2022-12-18T09:34:53;4.90;;;2.85;;
55212;SDS011;41083;52.932;6.674;2022-12-18T09:37:18;7.00;;;4.35;;
55212;SDS011;41083;52.932;6.674;2022-12-18T09:39:44;3.35;;;2.15;;
55212;SDS011;41083;52.932;6.674;2022-12-18T09:42:12;5.25;;;3.22;;
55212;SDS011;41083;52.932;6.674;2022-12-18T09:44:46;4.80;;;4.03;;
55212;SDS011;41083;52.932;6.674;2022-12-18T09:47:28;5.57;;;2.90;;
55212;SDS011;41083;52.932;6.674;2022-12-18T09:50:01;7.00;;;2.83;;
55212;SDS011;41083;52.932;6.674;2022-12-18T09:52:36;8.13;;;2.55;;
55212;SDS011;41083;52.932;6.674;2022-12-18T09:57:56;2.47;;;1.98;;
55212;SDS011;41083;52.932;6.674;2022-12-18T10:00:27;10.98;;;2.47;;
55212;SDS011;41083;52.932;6.674;2022-12-18T10:02:53;6.72;;;2.30;;
55212;SDS011;41083;52.932;6.674;2022-12-18T10:05:41;3.92;;;2.00;;
55212;SDS011;41083;52.932;6.674;2022-12-18T10:08:57;3.30;;;1.73;;
55212;SDS011;41083;52.932;6.674;2022-12-18T10:14:18;3.03;;;1.50;;
55212;SDS011;41083;52.932;6.674;2022-12-18T10:21:57;2.60;;;1.60;;
55212;SDS011;41083;52.932;6.674;2022-12-18T10:25:00;2.45;;;1.80;;
55212;SDS011;41083;52.932;6.674;2022-12-18T10:27:47;5.15;;;2.05;;
55212;SDS011;41083;52.932;6.674;2022-12-18T10:30:17;4.30;;;1.95;;
55212;SDS011;41083;52.932;6.674;2022-12-18T10:32:44;7.45;;;2.58;;
55212;SDS011;41083;52.932;6.674;2022-12-18T10:35:23;2.30;;;1.75;;
55212;SDS011;41083;52.932;6.674;2022-12-18T10:40:29;2.85;;;2.13;;
55212;SDS011;41083;52.932;6.674;2022-12-18T10:43:03;5.78;;;1.58;;
55212;SDS011;41083;52.932;6.674;2022-12-18T10:45:31;5.82;;;1.88;;
55212;SDS011;41083;52.932;6.674;2022-12-18T10:47:56;3.72;;;1.38;;
55212;SDS011;41083;52.932;6.674;2022-12-18T10:50:28;2.90;;;1.20;;
55212;SDS011;41083;52.932;6.674;2022-12-18T10:52:55;2.80;;;2.30;;
55212;SDS011;41083;52.932;6.674;2022-12-18T10:55:23;2.03;;;1.17;;
55212;SDS011;41083;52.932;6.674;2022-12-18T10:57:56;1.48;;;1.20;;
55212;SDS011;41083;52.932;6.674;2022-12-18T11:01:13;2.22;;;1.65;;
55212;SDS011;41083;52.932;6.674;2022-12-18T11:06:11;3.58;;;2.60;;
55212;SDS011;41083;52.932;6.674;2022-12-18T11:08:39;2.80;;;1.48;;
55212;SDS011;41083;52.932;6.674;2022-12-18T11:11:14;4.38;;;1.58;;
55212;SDS011;41083;52.932;6.674;2022-12-18T11:13:59;3.95;;;1.45;;
55212;SDS011;41083;52.932;6.674;2022-12-18T11:16:33;6.60;;;2.08;;
55212;SDS011;41083;52.932;6.674;2022-12-18T11:21:49;2.95;;;1.75;;
55212;SDS011;41083;52.932;6.674;2022-12-18T11:24:18;3.75;;;1.80;;
55212;SDS011;41083;52.932;6.674;2022-12-18T11:26:55;4.63;;;2.30;;
55212;SDS011;41083;52.932;6.674;2022-12-18T11:29:27;3.25;;;2.00;;
55212;SDS011;41083;52.932;6.674;2022-12-18T11:37:36;2.95;;;1.60;;
55212;SDS011;41083;52.932;6.674;2022-12-18T11:40:10;8.18;;;1.77;;
55212;SDS011;41083;52.932;6.674;2022-12-18T11:42:45;3.45;;;2.25;;
55212;SDS011;41083;52.932;6.674;2022-12-18T11:45:28;4.10;;;2.47;;
55212;SDS011;41083;52.932;6.674;2022-12-18T11:50:51;5.50;;;2.60;;
55212;SDS011;41083;52.932;6.674;2022-12-18T11:53:18;5.05;;;2.08;;
55212;SDS011;41083;52.932;6.674;2022-12-18T11:55:56;3.55;;;2.25;;
55212;SDS011;41083;52.932;6.674;2022-12-18T11:58:43;5.78;;;2.15;;
55212;SDS011;41083;52.932;6.674;2022-12-18T12:04:07;4.90;;;1.92;;
55212;SDS011;41083;52.932;6.674;2022-12-18T12:09:17;5.82;;;1.65;;
55212;SDS011;41083;52.932;6.674;2022-12-18T12:20:12;6.07;;;1.80;;
55212;SDS011;41083;52.932;6.674;2022-12-18T12:25:58;4.78;;;1.98;;
55212;SDS011;41083;52.932;6.674;2022-12-18T12:28:37;4.65;;;2.13;;
55212;SDS011;41083;52.932;6.674;2022-12-18T12:39:37;6.63;;;2.63;;
55212;SDS011;41083;52.932;6.674;2022-12-18T12:42:05;10.40;;;1.92;;
55212;SDS011;41083;52.932;6.674;2022-12-18T12:45:07;2.60;;;1.90;;
55212;SDS011;41083;52.932;6.674;2022-12-18T12:47:49;3.95;;;2.00;;
55212;SDS011;41083;52.932;6.674;2022-12-18T12:50:16;7.05;;;2.40;;
55212;SDS011;41083;52.932;6.674;2022-12-18T12:52:45;4.00;;;2.08;;
55212;SDS011;41083;52.932;6.674;2022-12-18T12:55:21;2.97;;;1.58;;
55212;SDS011;41083;52.932;6.674;2022-12-18T12:57:57;4.90;;;2.35;;
55212;SDS011;41083;52.932;6.674;2022-12-18T13:00:24;3.65;;;2.22;;
55212;SDS011;41083;52.932;6.674;2022-12-18T13:08:25;1.63;;;1.50;;
55212;SDS011;41083;52.932;6.674;2022-12-18T13:10:56;2.58;;;1.63;;
55212;SDS011;41083;52.932;6.674;2022-12-18T13:16:19;3.13;;;1.38;;
55212;SDS011;41083;52.932;6.674;2022-12-18T13:18:50;2.58;;;1.38;;
55212;SDS011;41083;52.932;6.674;2022-12-18T13:21:28;3.00;;;1.38;;
55212;SDS011;41083;52.932;6.674;2022-12-18T13:23:55;13.63;;;1.90;;
55212;SDS011;41083;52.932;6.674;2022-12-18T13:26:38;3.00;;;2.33;;
55212;SDS011;41083;52.932;6.674;2022-12-18T13:29:04;3.28;;;2.08;;
55212;SDS011;41083;52.932;6.674;2022-12-18T13:34:22;2.97;;;1.40;;
55212;SDS011;41083;52.932;6.674;2022-12-18T13:36:49;4.60;;;2.28;;
55212;SDS011;41083;52.932;6.674;2022-12-18T13:41:44;4.18;;;1.50;;
55212;SDS011;41083;52.932;6.674;2022-12-18T13:44:32;2.30;;;1.70;;
55212;SDS011;41083;52.932;6.674;2022-12-18T13:47:00;2.00;;;1.17;;
55212;SDS011;41083;52.932;6.674;2022-12-18T13:49:36;1.75;;;1.60;;
55212;SDS011;41083;52.932;6.674;2022-12-18T13:52:41;4.40;;;2.22;;
55212;SDS011;41083;52.932;6.674;2022-12-18T13:55:02;1.50;;;0.93;;
55212;SDS011;41083;52.932;6.674;2022-12-18T13:57:32;9.57;;;2.63;;
55212;SDS011;41083;52.932;6.674;2022-12-18T14:02:46;3.15;;;2.15;;
55212;SDS011;41083;52.932;6.674;2022-12-18T14:05:22;2.33;;;1.38;;
55212;SDS011;41083;52.932;6.674;2022-12-18T14:07:52;5.22;;;2.30;;
55212;SDS011;41083;52.932;6.674;2022-12-18T14:10:19;2.42;;;1.38;;
55212;SDS011;41083;52.932;6.674;2022-12-18T14:12:49;4.70;;;1.95;;
55212;SDS011;41083;52.932;6.674;2022-12-18T14:17:50;2.63;;;1.60;;
55212;SDS011;41083;52.932;6.674;2022-12-18T14:20:17;3.65;;;1.50;;
55212;SDS011;41083;52.932;6.674;2022-12-18T14:22:43;5.05;;;2.20;;
55212;SDS011;41083;52.932;6.674;2022-12-18T14:25:16;3.40;;;1.38;;
55212;SDS011;41083;52.932;6.674;2022-12-18T14:27:45;3.78;;;2.03;;
55212;SDS011;41083;52.932;6.674;2022-12-18T14:30:38;1.00;;;0.70;;
55212;SDS011;41083;52.932;6.674;2022-12-18T14:35:58;6.50;;;3.63;;
55212;SDS011;41083;52.932;6.674;2022-12-18T14:38:31;4.90;;;2.53;;
55212;SDS011;41083;52.932;6.674;2022-12-18T14:41:09;7.50;;;3.17;;
55212;SDS011;41083;52.932;6.674;2022-12-18T14:43:40;2.60;;;2.08;;
55212;SDS011;41083;52.932;6.674;2022-12-18T14:49:17;4.93;;;2.78;;
55212;SDS011;41083;52.932;6.674;2022-12-18T14:52:36;5.38;;;3.17;;
55212;SDS011;41083;52.932;6.674;2022-12-18T14:54:48;12.05;;;6.65;;
55212;SDS011;41083;52.932;6.674;2022-12-18T14:57:23;6.25;;;4.55;;
55212;SDS011;41083;52.932;6.674;2022-12-18T14:59:53;6.32;;;3.33;;
55212;SDS011;41083;52.932;6.674;2022-12-18T15:02:28;9.45;;;6.45;;
55212;SDS011;41083;52.932;6.674;2022-12-18T15:05:01;11.85;;;7.72;;
55212;SDS011;41083;52.932;6.674;2022-12-18T15:07:39;4.65;;;2.20;;
55212;SDS011;41083;52.932;6.674;2022-12-18T15:10:14;5.70;;;2.97;;
55212;SDS011;41083;52.932;6.674;2022-12-18T15:12:50;5.18;;;2.28;;
55212;SDS011;41083;52.932;6.674;2022-12-18T15:18:02;3.05;;;2.72;;
55212;SDS011;41083;52.932;6.674;2022-12-18T15:20:41;5.57;;;3.15;;
55212;SDS011;41083;52.932;6.674;2022-12-18T15:23:14;5.43;;;2.92;;
55212;SDS011;41083;52.932;6.674;2022-12-18T15:25:40;3.97;;;3.20;;
55212;SDS011;41083;52.932;6.674;2022-12-18T15:28:22;4.60;;;1.98;;
55212;SDS011;41083;52.932;6.674;2022-12-18T15:33:37;4.90;;;2.42;;
55212;SDS011;41083;52.932;6.674;2022-12-18T15:36:15;3.63;;;2.60;;
55212;SDS011;41083;52.932;6.674;2022-12-18T15:38:45;7.88;;;3.42;;
55212;SDS011;41083;52.932;6.674;2022-12-18T15:41:16;6.85;;;3.42;;
55212;SDS011;41083;52.932;6.674;2022-12-18T15:43:43;4.68;;;3.47;;
55212;SDS011;41083;52.932;6.674;2022-12-18T15:46:14;6.10;;;3.28;;
55212;SDS011;41083;52.932;6.674;2022-12-18T15:48:42;5.78;;;3.42;;
55212;SDS011;41083;52.932;6.674;2022-12-18T15:51:23;5.72;;;2.58;;
55212;SDS011;41083;52.932;6.674;2022-12-18T15:53:53;7.53;;;3.03;;
55212;SDS011;41083;52.932;6.674;2022-12-18T15:56:20;3.10;;;1.67;;
55212;SDS011;41083;52.932;6.674;2022-12-18T15:59:08;5.93;;;3.00;;
55212;SDS011;41083;52.932;6.674;2022-12-18T16:01:37;7.50;;;4.70;;
55212;SDS011;41083;52.932;6.674;2022-12-18T16:04:02;5.47;;;2.92;;
55212;SDS011;41083;52.932;6.674;2022-12-18T16:06:28;6.35;;;3.80;;
55212;SDS011;41083;52.932;6.674;2022-12-18T16:08:54;5.82;;;4.10;;
55212;SDS011;41083;52.932;6.674;2022-12-18T16:11:29;5.90;;;2.83;;
55212;SDS011;41083;52.932;6.674;2022-12-18T16:16:43;5.47;;;3.10;;
55212;SDS011;41083;52.932;6.674;2022-12-18T16:19:13;4.43;;;3.40;;
55212;SDS011;41083;52.932;6.674;2022-12-18T16:21:39;6.95;;;2.25;;
55212;SDS011;41083;52.932;6.674;2022-12-18T16:24:05;6.93;;;3.60;;
55212;SDS011;41083;52.932;6.674;2022-12-18T16:26:34;6.97;;;3.83;;
55212;SDS011;41083;52.932;6.674;2022-12-18T16:28:59;2.85;;;1.98;;
55212;SDS011;41083;52.932;6.674;2022-12-18T16:31:25;3.40;;;2.83;;
55212;SDS011;41083;52.932;6.674;2022-12-18T16:34:09;4.90;;;3.30;;
55212;SDS011;41083;52.932;6.674;2022-12-18T16:36:35;6.82;;;3.10;;
55212;SDS011;41083;52.932;6.674;2022-12-18T16:39:01;4.18;;;2.40;;